createdAt,value
2023-03-02T00:00:51.553Z,145732.47
2023-03-02T00:02:02.370Z,145744.47
2023-03-02T00:03:05.501Z,145761.34
2023-03-02T00:04:14.008Z,145742.06
2023-03-02T00:05:16.513Z,145718.03
2023-03-02T00:06:19.515Z,145739.66
2023-03-02T00:07:32.473Z,145742.06
2023-03-02T00:08:36.682Z,145734.84
2023-03-02T00:09:39.561Z,145737.25
2023-03-02T00:10:42.445Z,145718.03
2023-03-02T00:11:45.841Z,145707.19
2023-03-02T00:12:48.323Z,145716.84
2023-03-02T00:13:50.842Z,145710.78
2023-03-02T00:14:53.367Z,145715.63
2023-03-02T00:15:55.984Z,145730.06
2023-03-02T00:16:58.772Z,145734.84
2023-03-02T00:18:01.286Z,145725.25
2023-03-02T00:19:03.696Z,145730.06
2023-03-02T00:20:12.700Z,145730.06
2023-03-02T00:21:15.229Z,145748.13
2023-03-02T00:22:19.182Z,145745.72
2023-03-02T00:23:21.691Z,145742.06
2023-03-02T00:24:24.212Z,145726.44
2023-03-02T00:25:26.851Z,145739.66
2023-03-02T00:26:29.403Z,145731.25
2023-03-02T00:27:31.892Z,145718.03
2023-03-02T00:28:35.732Z,145716.84
2023-03-02T00:29:38.278Z,145707.19
2023-03-02T00:30:40.770Z,145725.25
2023-03-02T00:31:43.323Z,145710.78
2023-03-02T00:32:45.936Z,145730.06
2023-03-02T00:33:48.452Z,145722.84
2023-03-02T00:34:51.103Z,145731.25
2023-03-02T00:35:53.728Z,145715.63
2023-03-02T00:36:56.255Z,145702.38
2023-03-02T00:37:58.799Z,145713.19
2023-03-02T00:39:01.297Z,145701.16
2023-03-02T00:40:07.060Z,145698.75
2023-03-02T00:41:12.100Z,145690.34
2023-03-02T00:42:14.499Z,145686.75
2023-03-02T00:43:17.146Z,145702.38
2023-03-02T00:44:19.541Z,145715.63
2023-03-02T00:45:22.180Z,145698.75
2023-03-02T00:46:25.221Z,145713.19
2023-03-02T00:47:30.940Z,145740.88
2023-03-02T00:48:33.464Z,145718.03
2023-03-02T00:49:36.703Z,145720.44
2023-03-02T00:50:41.348Z,145714.44
2023-03-02T00:51:43.909Z,145715.63
2023-03-02T00:52:46.545Z,145705.97
2023-03-02T00:53:49.073Z,145681.94
2023-03-02T00:54:51.707Z,145669.88
2023-03-02T00:55:55.185Z,145680.69
2023-03-02T00:56:58.668Z,145671.09
2023-03-02T00:58:01.186Z,145689.16
2023-03-02T00:59:28.248Z,145696.38
2023-03-02T01:00:46.433Z,145705.97
2023-03-02T01:01:57.976Z,145713.19
2023-03-02T01:03:02.349Z,145709.56
2023-03-02T01:04:05.159Z,145703.56
2023-03-02T01:05:08.159Z,145686.75
2023-03-02T01:06:17.035Z,145714.44
2023-03-02T01:07:26.284Z,145675.91
2023-03-02T01:08:28.798Z,145681.94
2023-03-02T01:09:32.878Z,145665.09
2023-03-02T01:10:35.435Z,145644.63
2023-03-02T01:11:37.812Z,145621.78
2023-03-02T01:12:40.328Z,145602.53
2023-03-02T01:13:43.444Z,145610.94
2023-03-02T01:14:48.145Z,145649.47
2023-03-02T01:16:00.293Z,145654.28
2023-03-02T01:17:04.223Z,145631.41
2023-03-02T01:18:06.852Z,145633.81
2023-03-02T01:19:09.367Z,145648.22
2023-03-02T01:20:12.970Z,145638.59
2023-03-02T01:21:16.583Z,145667.47
2023-03-02T01:22:20.300Z,145673.50
2023-03-02T01:23:22.812Z,145660.28
2023-03-02T01:24:25.349Z,145656.66
2023-03-02T01:25:28.574Z,145665.09
2023-03-02T01:26:31.365Z,145662.69
2023-03-02T01:27:33.976Z,145660.28
2023-03-02T01:28:36.862Z,145665.09
2023-03-02T01:29:39.265Z,145650.66
2023-03-02T01:30:41.779Z,145653.06
2023-03-02T01:31:45.447Z,145647.00
2023-03-02T01:32:47.899Z,145655.47
2023-03-02T01:33:50.420Z,145659.06
2023-03-02T01:34:52.942Z,145653.06
2023-03-02T01:35:55.374Z,145645.81
2023-03-02T01:36:57.990Z,145669.88
2023-03-02T01:38:00.502Z,145662.69
2023-03-02T01:39:03.502Z,145666.28
2023-03-02T01:40:06.760Z,145660.28
2023-03-02T01:41:10.344Z,145643.41
2023-03-02T01:42:12.887Z,145657.88
2023-03-02T01:43:16.851Z,145672.28
2023-03-02T01:44:51.513Z,145696.38
2023-03-02T01:45:57.379Z,145679.50
2023-03-02T01:47:18.755Z,145665.09
2023-03-02T01:48:39.281Z,145665.09
2023-03-02T01:49:47.555Z,145659.06
2023-03-02T01:50:50.554Z,145650.66
2023-03-02T01:51:53.436Z,145660.28
2023-03-02T01:52:56.791Z,145644.63
2023-03-02T01:54:04.235Z,145665.09
2023-03-02T01:55:10.479Z,145660.28
2023-03-02T01:56:18.876Z,145661.47
2023-03-02T01:57:25.361Z,145669.88
2023-03-02T01:58:31.362Z,145655.47
2023-03-02T01:59:36.275Z,145648.22
2023-03-02T02:00:40.290Z,145637.41
2023-03-02T02:01:47.444Z,145645.81
2023-03-02T02:02:51.648Z,145626.59
2023-03-02T02:03:57.800Z,145619.38
2023-03-02T02:05:00.639Z,145619.38
2023-03-02T02:06:24.168Z,145650.66
2023-03-02T02:07:28.014Z,145616.97
2023-03-02T02:08:31.249Z,145625.41
2023-03-02T02:09:56.800Z,145626.59
2023-03-02T02:10:59.573Z,145638.59
2023-03-02T02:12:02.933Z,145629.00
2023-03-02T02:13:09.765Z,145648.22
2023-03-02T02:14:13.387Z,145641.00
2023-03-02T02:15:16.396Z,145648.22
2023-03-02T02:16:18.926Z,145648.22
2023-03-02T02:17:22.134Z,145638.59
2023-03-02T02:18:26.331Z,145662.69
2023-03-02T02:20:07.440Z,145689.16
2023-03-02T02:21:10.128Z,145679.50
2023-03-02T02:22:22.614Z,145681.94
2023-03-02T02:23:28.269Z,145674.69
2023-03-02T02:24:46.610Z,145689.16
2023-03-02T02:26:01.985Z,145705.97
2023-03-02T02:27:04.627Z,145675.91
2023-03-02T02:28:13.133Z,145685.56
2023-03-02T02:29:22.907Z,145698.75
2023-03-02T02:30:27.177Z,145686.75
2023-03-02T02:31:38.402Z,145713.19
2023-03-02T02:32:43.552Z,145703.56
2023-03-02T02:33:52.043Z,145699.97
2023-03-02T02:35:13.378Z,145737.25
2023-03-02T02:36:21.660Z,145732.47
2023-03-02T02:37:30.786Z,145727.66
2023-03-02T02:38:36.553Z,145719.25
2023-03-02T02:39:44.826Z,145730.06
2023-03-02T02:41:01.624Z,145725.25
2023-03-02T02:42:13.985Z,145709.56
2023-03-02T02:43:19.638Z,145705.97
2023-03-02T02:44:22.391Z,145713.19
2023-03-02T02:45:26.617Z,145725.25
2023-03-02T02:46:29.714Z,145733.66
2023-03-02T02:47:32.833Z,145703.56
2023-03-02T02:48:35.602Z,145709.56
2023-03-02T02:49:40.637Z,145724.03
2023-03-02T02:50:44.490Z,145697.56
2023-03-02T02:51:47.949Z,145695.16
2023-03-02T02:52:57.557Z,145715.63
2023-03-02T02:54:02.833Z,145680.69
2023-03-02T02:55:20.232Z,145696.38
2023-03-02T02:56:31.149Z,145673.50
2023-03-02T02:57:33.803Z,145659.06
2023-03-02T02:58:42.797Z,145638.59
2023-03-02T02:59:49.043Z,145655.47
2023-03-02T03:00:51.957Z,145669.88
2023-03-02T03:01:55.758Z,145647.00
2023-03-02T03:03:07.762Z,145638.59
2023-03-02T03:04:14.779Z,145623.00
2023-03-02T03:05:17.720Z,145632.59
2023-03-02T03:06:30.509Z,145629.00
2023-03-02T03:07:33.458Z,145612.13
2023-03-02T03:08:44.021Z,145616.97
2023-03-02T03:10:08.248Z,145647.00
2023-03-02T03:11:13.287Z,145638.59
2023-03-02T03:12:22.284Z,145641.00
2023-03-02T03:13:24.807Z,145614.53
2023-03-02T03:14:32.882Z,145609.72
2023-03-02T03:15:35.368Z,145591.72
2023-03-02T03:16:39.945Z,145612.13
2023-03-02T03:17:49.767Z,145629.00
2023-03-02T03:18:53.248Z,145612.13
2023-03-02T03:20:03.449Z,145612.13
2023-03-02T03:21:06.208Z,145572.44
2023-03-02T03:22:12.093Z,145590.50
2023-03-02T03:23:14.870Z,145588.09
2023-03-02T03:24:18.448Z,145614.53
2023-03-02T03:25:25.170Z,145609.72
2023-03-02T03:26:28.171Z,145602.53
2023-03-02T03:27:30.940Z,145604.94
2023-03-02T03:28:34.182Z,145595.31
2023-03-02T03:29:39.100Z,145616.97
2023-03-02T03:30:44.397Z,145592.91
2023-03-02T03:31:46.893Z,145578.47
2023-03-02T03:32:49.652Z,145574.84
2023-03-02T03:33:53.131Z,145538.78
2023-03-02T03:34:56.617Z,145535.19
2023-03-02T03:36:05.975Z,145525.56
2023-03-02T03:37:13.663Z,145518.31
2023-03-02T03:38:17.251Z,145511.13
2023-03-02T03:39:22.055Z,145513.50
2023-03-02T03:40:25.421Z,145515.91
2023-03-02T03:41:28.176Z,145524.38
2023-03-02T03:42:30.710Z,145518.31
2023-03-02T03:43:34.060Z,145512.31
2023-03-02T03:44:36.821Z,145511.13
2023-03-02T03:45:39.818Z,145523.16
2023-03-02T03:46:43.182Z,145508.72
2023-03-02T03:47:46.181Z,145514.72
2023-03-02T03:48:49.062Z,145511.13
2023-03-02T03:49:51.584Z,145508.72
2023-03-02T03:50:54.219Z,145513.50
2023-03-02T03:51:56.859Z,145496.72
2023-03-02T03:52:59.380Z,145513.50
2023-03-02T03:54:05.981Z,145493.09
2023-03-02T03:55:12.590Z,145487.09
2023-03-02T03:56:16.567Z,145475.06
2023-03-02T03:57:19.066Z,145487.09
2023-03-02T03:58:21.872Z,145488.31
2023-03-02T03:59:25.783Z,145479.84
2023-03-02T04:00:34.544Z,145491.91
2023-03-02T04:01:49.010Z,145497.91
2023-03-02T04:02:52.611Z,145479.84
2023-03-02T04:03:55.574Z,145494.31
2023-03-02T04:05:06.377Z,145493.09
2023-03-02T04:06:19.068Z,145518.31
2023-03-02T04:07:22.308Z,145503.91
2023-03-02T04:08:24.713Z,145477.44
2023-03-02T04:09:27.607Z,145477.44
2023-03-02T04:10:30.356Z,145479.84
2023-03-02T04:11:38.642Z,145496.72
2023-03-02T04:12:42.476Z,145496.72
2023-03-02T04:13:45.956Z,145483.44
2023-03-02T04:14:48.594Z,145488.31
2023-03-02T04:15:51.282Z,145495.50
2023-03-02T04:16:53.778Z,145489.50
2023-03-02T04:17:57.841Z,145484.66
2023-03-02T04:19:01.316Z,145496.72
2023-03-02T04:20:07.797Z,145484.66
2023-03-02T04:21:10.920Z,145473.84
2023-03-02T04:22:15.243Z,145479.84
2023-03-02T04:23:18.128Z,145477.44
2023-03-02T04:24:23.302Z,145457.03
2023-03-02T04:25:29.520Z,145447.38
2023-03-02T04:26:39.481Z,145424.56
2023-03-02T04:27:42.600Z,145424.56
2023-03-02T04:28:45.272Z,145424.56
2023-03-02T04:29:48.486Z,145401.72
2023-03-02T04:30:51.670Z,145400.53
2023-03-02T04:31:54.288Z,145369.28
2023-03-02T04:32:57.779Z,145304.38
2023-03-02T04:34:06.388Z,145280.34
2023-03-02T04:35:14.173Z,145263.53
2023-03-02T04:36:16.818Z,145244.31
2023-03-02T04:37:21.138Z,145207.06
2023-03-02T04:38:23.788Z,145196.28
2023-03-02T04:39:27.262Z,145208.25
2023-03-02T04:40:30.144Z,145217.88
2023-03-02T04:41:33.022Z,145213.06
2023-03-02T04:42:36.266Z,145222.66
2023-03-02T04:43:38.904Z,145177.03
2023-03-02T04:44:41.309Z,145179.44
2023-03-02T04:45:43.839Z,145185.44
2023-03-02T04:46:47.881Z,145172.22
2023-03-02T04:47:50.310Z,145156.59
2023-03-02T04:48:53.796Z,145132.59
2023-03-02T04:49:57.532Z,145116.97
2023-03-02T04:51:00.035Z,145098.97
2023-03-02T04:52:03.273Z,145091.75
2023-03-02T04:53:05.791Z,145112.19
2023-03-02T04:54:16.713Z,145106.19
2023-03-02T04:55:22.375Z,145143.41
2023-03-02T04:56:25.356Z,145150.59
2023-03-02T04:57:27.878Z,145165.03
2023-03-02T04:58:30.397Z,145156.59
2023-03-02T04:59:32.924Z,145167.44
2023-03-02T05:00:35.570Z,145186.63
2023-03-02T05:01:38.080Z,145186.63
2023-03-02T05:02:41.134Z,145193.81
2023-03-02T05:03:43.730Z,145189.03
2023-03-02T05:04:46.278Z,145196.28
2023-03-02T05:05:48.887Z,145229.91
2023-03-02T05:06:51.290Z,145227.50
2023-03-02T05:07:54.041Z,145225.06
2023-03-02T05:08:59.919Z,145214.25
2023-03-02T05:10:02.441Z,145190.22
2023-03-02T05:11:06.540Z,145156.59
2023-03-02T05:12:09.088Z,145181.81
2023-03-02T05:13:11.580Z,145157.78
2023-03-02T05:14:14.204Z,145153.00
2023-03-02T05:15:16.971Z,145159.00
2023-03-02T05:16:20.502Z,145143.41
2023-03-02T05:17:22.966Z,145155.41
2023-03-02T05:18:25.971Z,145179.44
2023-03-02T05:19:28.495Z,145155.41
2023-03-02T05:20:31.728Z,145156.59
2023-03-02T05:21:34.611Z,145166.25
2023-03-02T05:22:38.335Z,145118.16
2023-03-02T05:23:42.062Z,145124.16
2023-03-02T05:24:44.453Z,145116.97
2023-03-02T05:25:47.092Z,145128.97
2023-03-02T05:26:49.743Z,145128.97
2023-03-02T05:27:53.100Z,145143.41
2023-03-02T05:28:55.737Z,145143.41
2023-03-02T05:29:58.260Z,145153.00
2023-03-02T05:31:01.219Z,145148.19
2023-03-02T05:32:03.831Z,145177.03
2023-03-02T05:33:06.306Z,145155.41
2023-03-02T05:34:11.822Z,145166.25
2023-03-02T05:35:14.960Z,145156.59
2023-03-02T05:36:19.854Z,145156.59
2023-03-02T05:37:23.238Z,145159.00
2023-03-02T05:38:27.427Z,145169.84
2023-03-02T05:39:29.944Z,145155.41
2023-03-02T05:40:32.704Z,145177.03
2023-03-02T05:41:36.664Z,145174.63
2023-03-02T05:42:39.425Z,145163.84
2023-03-02T05:43:41.825Z,145145.81
2023-03-02T05:44:44.229Z,145156.59
2023-03-02T05:45:46.887Z,145156.59
2023-03-02T05:46:49.750Z,145125.38
2023-03-02T05:47:52.746Z,145084.56
2023-03-02T05:48:55.272Z,145109.78
2023-03-02T05:49:57.910Z,145085.75
2023-03-02T05:51:00.552Z,145083.34
2023-03-02T05:52:03.072Z,145114.56
2023-03-02T05:53:05.728Z,145112.19
2023-03-02T05:54:08.235Z,145052.13
2023-03-02T05:55:11.238Z,145083.34
2023-03-02T05:56:13.751Z,145092.94
2023-03-02T05:57:16.272Z,145098.97
2023-03-02T05:58:19.993Z,145112.19
2023-03-02T05:59:22.521Z,145101.38
2023-03-02T06:00:24.936Z,145107.38
2023-03-02T06:01:27.437Z,145114.56
2023-03-02T06:02:30.074Z,145095.34
2023-03-02T06:03:32.597Z,145101.38
2023-03-02T06:04:35.116Z,145044.94
2023-03-02T06:05:38.130Z,145052.13
2023-03-02T06:06:40.899Z,145056.94
2023-03-02T06:07:43.646Z,145054.53
2023-03-02T06:08:46.397Z,145025.72
2023-03-02T06:09:49.643Z,144987.31
2023-03-02T06:10:56.482Z,145008.94
2023-03-02T06:11:58.882Z,144996.91
2023-03-02T06:13:01.281Z,144989.69
2023-03-02T06:14:03.683Z,144977.72
2023-03-02T06:15:07.403Z,144970.53
2023-03-02T06:16:09.999Z,144932.09
2023-03-02T06:17:13.048Z,144946.50
2023-03-02T06:18:15.687Z,144957.28
2023-03-02T06:19:18.206Z,144990.91
2023-03-02T06:20:20.726Z,145006.53
2023-03-02T06:21:23.280Z,145028.13
2023-03-02T06:22:25.967Z,145052.13
2023-03-02T06:23:28.652Z,145038.94
2023-03-02T06:24:31.168Z,145073.75
2023-03-02T06:25:33.699Z,145080.94
2023-03-02T06:26:36.329Z,145071.38
2023-03-02T06:27:40.049Z,145080.94
2023-03-02T06:28:52.252Z,145082.16
2023-03-02T06:29:56.152Z,145080.94
2023-03-02T06:31:00.502Z,145061.72
2023-03-02T06:32:03.078Z,145064.13
2023-03-02T06:33:05.877Z,145074.97
2023-03-02T06:34:08.636Z,145071.38
2023-03-02T06:35:12.646Z,145076.16
2023-03-02T06:36:17.157Z,145073.75
2023-03-02T06:37:19.791Z,145071.38
2023-03-02T06:38:22.545Z,145068.97
2023-03-02T06:39:25.059Z,145083.34
2023-03-02T06:40:27.468Z,145114.56
2023-03-02T06:41:30.144Z,145114.56
2023-03-02T06:42:32.623Z,145124.16
2023-03-02T06:43:35.145Z,145133.81
2023-03-02T06:44:37.663Z,145112.19
2023-03-02T06:45:40.569Z,145109.78
2023-03-02T06:46:43.666Z,145096.53
2023-03-02T06:47:46.185Z,145092.94
2023-03-02T06:48:48.708Z,145108.59
2023-03-02T06:49:51.348Z,145127.78
2023-03-02T06:50:53.994Z,145119.38
2023-03-02T06:51:56.508Z,145138.59
2023-03-02T06:52:59.297Z,145132.59
2023-03-02T06:54:01.788Z,145141.00
2023-03-02T06:55:04.923Z,145141.00
2023-03-02T06:56:07.912Z,145145.81
2023-03-02T06:57:10.566Z,145154.19
2023-03-02T06:58:13.336Z,145157.78
2023-03-02T06:59:15.773Z,145155.41
2023-03-02T07:00:25.954Z,145153.00
2023-03-02T07:01:33.254Z,145155.41
2023-03-02T07:02:36.849Z,145153.00
2023-03-02T07:03:39.283Z,145157.78
2023-03-02T07:04:41.876Z,145167.44
2023-03-02T07:05:46.176Z,145180.63
2023-03-02T07:06:48.837Z,145191.44
2023-03-02T07:07:51.745Z,145160.19
2023-03-02T07:08:54.364Z,145183.03
2023-03-02T07:09:56.881Z,145179.44
2023-03-02T07:10:59.520Z,145181.81
2023-03-02T07:12:02.045Z,145162.63
2023-03-02T07:13:04.560Z,145163.84
2023-03-02T07:14:07.342Z,145172.22
2023-03-02T07:15:12.424Z,145136.22
2023-03-02T07:16:16.227Z,145121.78
2023-03-02T07:17:18.848Z,145092.94
2023-03-02T07:18:21.362Z,145089.34
2023-03-02T07:19:24.008Z,145097.75
2023-03-02T07:20:26.526Z,145084.56
2023-03-02T07:21:29.045Z,145073.75
2023-03-02T07:22:31.571Z,145068.97
2023-03-02T07:23:35.539Z,145042.53
2023-03-02T07:24:38.047Z,145054.53
2023-03-02T07:25:40.724Z,145049.75
2023-03-02T07:26:43.339Z,145018.53
2023-03-02T07:27:46.226Z,145042.53
2023-03-02T07:28:48.968Z,145042.53
2023-03-02T07:29:51.488Z,145044.94
2023-03-02T07:30:56.048Z,145031.72
2023-03-02T07:32:01.954Z,145042.53
2023-03-02T07:33:04.473Z,145025.72
2023-03-02T07:34:07.091Z,145018.53
2023-03-02T07:35:10.104Z,145035.34
2023-03-02T07:36:12.620Z,145059.31
2023-03-02T07:37:15.022Z,145073.75
2023-03-02T07:38:17.548Z,145064.13
2023-03-02T07:39:20.662Z,145107.38
2023-03-02T07:40:23.066Z,145101.38
2023-03-02T07:41:25.579Z,145142.19
2023-03-02T07:42:28.342Z,145143.41
2023-03-02T07:43:35.660Z,145153.00
2023-03-02T07:44:38.320Z,145163.84
2023-03-02T07:45:40.823Z,145167.44
2023-03-02T07:46:43.366Z,145172.22
2023-03-02T07:47:45.982Z,145181.81
2023-03-02T07:48:48.626Z,145195.06
2023-03-02T07:49:51.272Z,145185.44
2023-03-02T07:51:01.115Z,145219.06
2023-03-02T07:52:04.245Z,145231.09
2023-03-02T07:53:06.746Z,145232.31
2023-03-02T07:54:09.271Z,145246.69
2023-03-02T07:55:11.907Z,145246.69
2023-03-02T07:56:14.306Z,145251.50
2023-03-02T07:57:18.300Z,145265.94
2023-03-02T07:58:21.509Z,145277.94
2023-03-02T07:59:24.653Z,145256.28
2023-03-02T08:00:27.179Z,145256.28
2023-03-02T08:01:29.883Z,145276.75
2023-03-02T08:02:33.734Z,145268.34
2023-03-02T08:03:37.136Z,145263.53
2023-03-02T08:04:39.784Z,145250.28
2023-03-02T08:05:42.278Z,145250.28
2023-03-02T08:06:44.798Z,145268.34
2023-03-02T08:07:47.452Z,145256.28
2023-03-02T08:08:50.077Z,145205.88
2023-03-02T08:09:52.723Z,145184.22
2023-03-02T08:10:55.243Z,145196.28
2023-03-02T08:11:57.890Z,145186.63
2023-03-02T08:13:00.399Z,145141.00
2023-03-02T08:14:03.402Z,145116.97
2023-03-02T08:15:06.412Z,145071.38
2023-03-02T08:16:10.529Z,145061.72
2023-03-02T08:17:12.906Z,145102.59
2023-03-02T08:18:15.411Z,145156.59
2023-03-02T08:19:18.886Z,145191.44
2023-03-02T08:20:21.527Z,145183.03
2023-03-02T08:21:26.330Z,145203.47
2023-03-02T08:22:28.852Z,145203.47
2023-03-02T08:23:31.402Z,145227.50
2023-03-02T08:24:33.907Z,145282.72
2023-03-02T08:25:38.696Z,145299.59
2023-03-02T08:26:41.214Z,145315.19
2023-03-02T08:27:46.739Z,145334.44
2023-03-02T08:28:49.378Z,145323.59
2023-03-02T08:29:51.908Z,145366.88
2023-03-02T08:30:59.101Z,145390.94
2023-03-02T08:32:01.769Z,145392.13
2023-03-02T08:33:07.117Z,145376.47
2023-03-02T08:34:10.020Z,145410.13
2023-03-02T08:35:13.055Z,145439.00
2023-03-02T08:36:18.678Z,145475.06
2023-03-02T08:37:21.202Z,145477.44
2023-03-02T08:38:24.578Z,145465.44
2023-03-02T08:39:30.413Z,145475.06
2023-03-02T08:40:32.952Z,145496.72
2023-03-02T08:41:36.113Z,145487.09
2023-03-02T08:42:38.709Z,145485.84
2023-03-02T08:43:41.707Z,145506.31
2023-03-02T08:44:44.716Z,145485.84
2023-03-02T08:45:54.933Z,145539.97
2023-03-02T08:46:57.446Z,145520.75
2023-03-02T08:47:59.955Z,145525.56
2023-03-02T08:49:02.466Z,145499.09
2023-03-02T08:50:05.958Z,145471.44
2023-03-02T08:51:14.959Z,145476.25
2023-03-02T08:52:17.469Z,145496.72
2023-03-02T08:53:19.996Z,145499.09
2023-03-02T08:54:23.108Z,145539.97
2023-03-02T08:55:25.832Z,145544.78
2023-03-02T08:56:34.074Z,145539.97
2023-03-02T08:57:36.554Z,145554.44
2023-03-02T08:58:39.203Z,145565.25
2023-03-02T08:59:41.589Z,145532.78
2023-03-02T09:00:44.252Z,145537.59
2023-03-02T09:01:46.859Z,145535.19
2023-03-02T09:02:49.394Z,145525.56
2023-03-02T09:03:52.519Z,145535.19
2023-03-02T09:04:55.898Z,145532.78
2023-03-02T09:05:59.017Z,145566.44
2023-03-02T09:07:01.935Z,145573.66
2023-03-02T09:08:05.244Z,145600.13
2023-03-02T09:09:09.197Z,145608.53
2023-03-02T09:10:11.858Z,145613.34
2023-03-02T09:11:14.718Z,145632.59
2023-03-02T09:12:17.241Z,145604.94
2023-03-02T09:13:19.758Z,145582.06
2023-03-02T09:14:22.528Z,145621.78
2023-03-02T09:15:25.167Z,145625.41
2023-03-02T09:16:28.076Z,145585.72
2023-03-02T09:17:30.564Z,145578.47
2023-03-02T09:18:33.085Z,145574.84
2023-03-02T09:19:44.240Z,145580.84
2023-03-02T09:20:53.611Z,145592.91
2023-03-02T09:21:56.014Z,145588.09
2023-03-02T09:22:58.528Z,145619.38
2023-03-02T09:24:00.957Z,145585.72
2023-03-02T09:25:05.740Z,145578.47
2023-03-02T09:26:08.976Z,145624.19
2023-03-02T09:27:11.616Z,145619.38
2023-03-02T09:28:14.132Z,145633.81
2023-03-02T09:29:16.676Z,145618.19
2023-03-02T09:30:19.293Z,145632.59
2023-03-02T09:31:21.880Z,145645.81
2023-03-02T09:32:24.504Z,145650.66
2023-03-02T09:33:28.803Z,145705.97
2023-03-02T09:34:31.296Z,145693.97
2023-03-02T09:35:33.818Z,145705.97
2023-03-02T09:36:36.727Z,145725.25
2023-03-02T09:37:39.276Z,145737.25
2023-03-02T09:38:41.745Z,145733.66
2023-03-02T09:39:44.324Z,145744.47
2023-03-02T09:40:58.671Z,145816.72
2023-03-02T09:42:17.866Z,145803.44
2023-03-02T09:43:53.863Z,145828.75
2023-03-02T09:45:17.503Z,145879.31
2023-03-02T09:46:44.398Z,145834.75
2023-03-02T09:48:04.906Z,145850.41
2023-03-02T09:49:26.148Z,145828.75
2023-03-02T09:50:33.711Z,145815.53
2023-03-02T09:51:58.789Z,145869.66
2023-03-02T09:53:10.332Z,145841.97
2023-03-02T09:54:19.565Z,145816.72
2023-03-02T09:55:27.594Z,145844.41
2023-03-02T09:56:31.867Z,145837.16
2023-03-02T09:57:38.650Z,145861.25
2023-03-02T09:58:43.311Z,145874.47
2023-03-02T09:59:53.642Z,145837.16
2023-03-02T10:01:00.475Z,145826.34
2023-03-02T10:02:25.320Z,145857.63
2023-03-02T10:03:36.656Z,145860.03
2023-03-02T10:04:44.838Z,145878.13
2023-03-02T10:05:50.639Z,145885.31
2023-03-02T10:06:57.884Z,145808.25
2023-03-02T10:08:01.079Z,145805.84
2023-03-02T10:09:03.722Z,145829.94
2023-03-02T10:10:09.240Z,145792.63
2023-03-02T10:11:25.801Z,145803.44
2023-03-02T10:13:02.176Z,145785.44
2023-03-02T10:14:15.488Z,145819.13
2023-03-02T10:15:26.165Z,145848.00
2023-03-02T10:16:38.090Z,145884.13
2023-03-02T10:17:53.025Z,145892.53
2023-03-02T10:19:16.566Z,145910.63
2023-03-02T10:20:34.683Z,146017.78
2023-03-02T10:21:44.050Z,146026.19
2023-03-02T10:22:50.554Z,145993.69
2023-03-02T10:24:05.769Z,146025.00
2023-03-02T10:25:35.800Z,146040.69
2023-03-02T10:26:46.727Z,145999.69
2023-03-02T10:28:02.050Z,146027.41
2023-03-02T10:29:34.712Z,146052.72
2023-03-02T10:30:38.924Z,146070.78
2023-03-02T10:31:43.347Z,146039.47
2023-03-02T10:32:50.411Z,146047.91
2023-03-02T10:33:53.190Z,146006.97
2023-03-02T10:34:55.934Z,146053.91
2023-03-02T10:36:01.244Z,146053.91
2023-03-02T10:37:13.497Z,146080.41
2023-03-02T10:38:19.591Z,146105.72
2023-03-02T10:39:21.984Z,146074.41
2023-03-02T10:40:32.069Z,146057.53
2023-03-02T10:41:51.748Z,146033.41
2023-03-02T10:42:56.544Z,145958.75
2023-03-02T10:44:07.463Z,145893.75
2023-03-02T10:45:32.177Z,145915.44
2023-03-02T10:46:43.667Z,145934.66
2023-03-02T10:47:46.343Z,145920.25
2023-03-02T10:48:51.981Z,145969.59
2023-03-02T10:49:56.662Z,145990.06
2023-03-02T10:51:00.660Z,145994.88
2023-03-02T10:52:21.628Z,146045.50
2023-03-02T10:53:24.385Z,146069.53
2023-03-02T10:54:29.072Z,146088.84
2023-03-02T10:55:33.631Z,146081.63
2023-03-02T10:56:36.751Z,146088.84
2023-03-02T10:57:56.918Z,146100.88
2023-03-02T10:59:03.393Z,146068.34
2023-03-02T11:00:21.276Z,146117.75
2023-03-02T11:01:23.829Z,146082.81
2023-03-02T11:02:28.471Z,146110.53
2023-03-02T11:03:32.074Z,146141.88
2023-03-02T11:04:34.617Z,146155.09
2023-03-02T11:05:39.517Z,146091.25
2023-03-02T11:06:42.175Z,146067.13
2023-03-02T11:08:02.557Z,146144.28
2023-03-02T11:09:07.481Z,146114.16
2023-03-02T11:10:22.310Z,146170.78
2023-03-02T11:11:25.273Z,146194.84
2023-03-02T11:12:28.959Z,146262.34
2023-03-02T11:13:37.005Z,146290.09
2023-03-02T11:14:39.546Z,146163.53
2023-03-02T11:15:51.198Z,146093.66
2023-03-02T11:16:53.799Z,146096.06
2023-03-02T11:18:05.326Z,146115.34
2023-03-02T11:19:31.244Z,146156.31
2023-03-02T11:20:38.927Z,146193.66
2023-03-02T11:21:44.218Z,146216.56
2023-03-02T11:23:07.013Z,146228.59
2023-03-02T11:24:28.852Z,146272.03
2023-03-02T11:25:39.297Z,146297.31
2023-03-02T11:27:00.897Z,146292.50
2023-03-02T11:28:17.233Z,146284.06
2023-03-02T11:29:38.579Z,146284.06
2023-03-02T11:30:48.335Z,146305.78
2023-03-02T11:32:00.154Z,146334.72
2023-03-02T11:33:13.154Z,146341.94
2023-03-02T11:34:43.258Z,146362.44
2023-03-02T11:35:54.807Z,146338.31
2023-03-02T11:37:00.177Z,146279.25
2023-03-02T11:38:12.779Z,146341.94
2023-03-02T11:39:20.701Z,146346.75
2023-03-02T11:40:34.881Z,146346.75
2023-03-02T11:41:37.380Z,146368.47
2023-03-02T11:42:42.660Z,146416.69
2023-03-02T11:43:45.061Z,146382.91
2023-03-02T11:44:48.668Z,146411.88
2023-03-02T11:46:13.859Z,146445.63
2023-03-02T11:47:23.297Z,146472.19
2023-03-02T11:48:43.269Z,146440.81
2023-03-02T11:49:54.905Z,146399.81
2023-03-02T11:51:07.154Z,146464.94
2023-03-02T11:52:27.858Z,146431.19
2023-03-02T11:53:46.117Z,146455.28
2023-03-02T11:54:57.677Z,146525.28
2023-03-02T11:56:00.194Z,146496.31
2023-03-02T11:57:04.168Z,146498.72
2023-03-02T11:58:07.518Z,146496.31
2023-03-02T11:59:21.087Z,146501.13
2023-03-02T12:00:56.952Z,146484.22
2023-03-02T12:02:01.065Z,146448.03
2023-03-02T12:03:21.921Z,146468.56
2023-03-02T12:04:34.161Z,146455.28
2023-03-02T12:05:40.034Z,146443.22
2023-03-02T12:06:45.321Z,146407.06
2023-03-02T12:08:00.924Z,146450.44
2023-03-02T12:09:31.333Z,146411.88
2023-03-02T12:10:44.496Z,146384.13
2023-03-02T12:11:53.846Z,146373.28
2023-03-02T12:13:17.009Z,146386.53
2023-03-02T12:14:40.658Z,146358.78
2023-03-02T12:15:45.938Z,146346.75
2023-03-02T12:16:48.543Z,146373.28
2023-03-02T12:17:52.106Z,146361.19
2023-03-02T12:18:54.812Z,146376.91
2023-03-02T12:20:23.848Z,146399.81
2023-03-02T12:21:27.229Z,146407.06
2023-03-02T12:22:31.796Z,146445.63
2023-03-02T12:23:40.654Z,146376.91
2023-03-02T12:24:45.096Z,146399.81
2023-03-02T12:25:51.599Z,146353.97
2023-03-02T12:27:14.390Z,146373.28
2023-03-02T12:28:31.435Z,146414.28
2023-03-02T12:29:44.258Z,146411.88
2023-03-02T12:30:56.650Z,146437.19
2023-03-02T12:32:10.071Z,146443.22